Latest METARs, TAFs and NOTAMs for ETSI


---------------------------------------------------------------------------
	(OBSERVATIONS)
ETSI 220520Z AUTO 26011KT //// // ////// 04/01 Q1026 ///=
ETSI 220420Z AUTO 26011KT //// // ////// 04/01 Q1026 ///=
ETSI 220320Z AUTO 26012KT //// // ////// 04/01 Q1026 ///=
---------------------------------------------------------------------------
	(FC)
TAF ETSI 220500Z NIL=
---------------------------------------------------------------------------
	(TERMINAL AREA FORECAST)
ETSI 211100Z NIL=
---------------------------------------------------------------------------
	(NOTAMS)


ETSI E1091/14 SPECIAL ACTIVITY AREA ESTABLISHED FOR GLIDER AEROBATICS
    RADIUS 3NM CENTERED AT 4842N 01132E INGOLSTADT/MANCHING AIRFIELD.
    GND - 6000FT AMSL, SAT-SUN 0700-SS, DEC 25 26 0700-SS, 26
    OCT 07:00 2014 UNTIL 28 DEC 15:14 2014. CREATED: 07 MAY 09:44
    2014

ETSI P8025/14 AD ETSI: AERODROME CLOSED EXCEPT CIVIL AIR TRAFFIC
    WITH PPR. 19 DEC 13:00 2014 UNTIL 07 JAN 08:00 2015. CREATED:
    09 DEC 11:34 2014

ETSI P8100/14 AD ETSI: NO PRACT APCH FOR NON HOMEBASED AIRCRAFT.
    11 DEC 11:31 2014 UNTIL 27 FEB 13:00 2015. CREATED: 11 DEC
    11:34 2014

ETSI P8103/14 AD ETSI: NO APPROACH END ARRESTMENT ON RWY07L.
    11 DEC 11:34 2014 UNTIL 27 FEB 13:00 2015. CREATED: 11 DEC
    11:37 2014

ETSI P8104/14 AD ETSI: NO ALTERNATE. 11 DEC 11:35 2014 UNTIL
    27 FEB 13:00 2015. CREATED: 11 DEC 11:38 2014

ETSI P8105/14 AD ETSI: TAKEOFF OF MIL JETS ONLY BTWN: MON-THU
    0800-1100 AND 1230-1600 FRI: 0800-1100. 11 DEC 11:37 2014
    UNTIL 27 FEB 13:00 2015. CREATED: 11 DEC 11:40 2014

ETSI P8108/14 AD ETSI: LIMITED RADAR COVERAGE BELOW 5000FT MSL
    DETAILED INFORMATION BY INGO RADAR. 11 DEC 11:40 2014 UNTIL
    27 FEB 13:00 2015. CREATED: 11 DEC 11:46 2014

ETSI P8109/14 AD ETSI: NO SRA POSSIBLE. 11 DEC 11:42 2014 UNTIL
    27 FEB 13:00 2015. CREATED: 11 DEC 11:48 2014

ETSI P8110/14 AD ETSI: PAR RWY25R/07L OUT OF SERVICE. 11 DEC
    11:43 2014 UNTIL 27 FEB 13:00 2015. CREATED: 11 DEC 11:49
    2014

ETSI P8111/14 AD ETSI: PAR RWY25L/07R OUT OF SERVICE. 11 DEC
    11:45 2014 UNTIL 27 FEB 13:00 2015. CREATED: 11 DEC 11:50
    2014

ETSI P8112/14 AD ETSI: TACAN APCH RWY07R SUSPENDED. 11 DEC 11:49
    2014 UNTIL 27 FEB 13:00 2015. CREATED: 11 DEC 11:52 2014

ETSI P8117/14 AD ETSI: RWY25L/07R CLOSED (EXCEPT AUTORIZED A3ST
    BELUGA MOVEMENTS). 11 DEC 12:23 2014 UNTIL 27 FEB 13:00 2015.
    CREATED: 11 DEC 12:28 2014

ETSI P8226/14 AD ETSI: TWY 'S' CLOSED BTWEEN GATE 3 AND GATE
    4 FOR WIDE WINGSPAN AIRCRAFT. DETAILED INFORMATION GIVEN
    BY INGO TOWER. 15 DEC 14:02 2014 UNTIL 23 DEC 16:00 2014.
    CREATED: 15 DEC 14:11 2014

ETSI P8255/14 AD ETSI: 24HRS PPR FOR MIL TRAFFIC. 16 DEC 13:49
    2014 UNTIL 17 FEB 13:00 2015. CREATED: 16 DEC 13:54 2014

ETSI U0091/14 AD ETSI INGOLDSTADT CENOR FLIP VOLUME 2 IAA RWY
    25R FAF ALT TO READ: 2900 FT MSL NOTAML WILL BE INCORPORATED
    IN FLIP DATED 05 FEB 2015. 05 DEC 09:30 2014 UNTIL 04 FEB
    23:59 2015. CREATED: 05 DEC 09:30 2014

ETSI V0419/14 [DOD PROCEDURAL NOTAM] IAP TACAN RWY 25R: INCREASE
    ALL INBOUND/OUTBOUND COURSES/RADIALS BY 1 DEGREE. 28 OCT
    10:08 2014 UNTIL 15 JAN 23:59 2015. CREATED: 28 OCT 10:09
    2014

ETSI V0420/14 [DOD PROCEDURAL NOTAM] IAP TACAN RWY 07R: CHANGE
    IGL OUTBOUND RADIAL TO R-216. 28 OCT 10:09 2014 UNTIL 15
    JAN 23:59 2015. CREATED: 28 OCT 10:10 2014

---------------------------------------------------------------------------